Etusivu
METAR-TAF:

METAR-TAF

Lentoasemat :

Shanghai Pudongin kansainvälinen lentoasema

Shanghai-Pudong, Kiina

Leveyspiiri: 31-07N, Pituuspiiri: 121-46E, korkeus merenpinnasta: 4 m

Tämänhetkinen sää

Tämä raportti tehtiin 17 minuuttia sitten, kello 15.30 UTC
Tuuli 6 kn idästä/kaakosta
Lämpötila 27°C
Kosteus 94%
Ilmanpaine 1002 hPa
Näkyvyys 10 km tai enemmän
Hajonneita pilviä 900 ft:n korkeudessa

METAR: ZSPD 231530Z 11003MPS 9999 BKN009 27/26 Q1002 NOSIG

Aika: 23:47 (15:47 UTC)

Sääennuste

Tämä raportti tehtiin 6 tuntia ja 35 minuuttia sitten, kello 09.12 UTC
Ennuste voimassa 23. päivästä klo 12 UTC - 24. päivään klo 12 UTC
Tuuli 14 kn etelästä/kaakosta
Näkyvyys: 6000 m
Hajonneita pilviä 1200 ft:n korkeudessa

TAF: ZSPD 230912Z 2312/2412 15007MPS 6000 BKN012 TX33/2405Z TN26/2321Z

Säähavainnot ja -ennusteet yli 4000 lentoasemalta (METAR- ja TAF-raportit).

Käytössä olevat sääasemat on merkitty karttaan keltaisilla ja punaisilla pisteillä.

Aseta hiiri pisteen päälle nähdäksesi sääaseman nimen.

Klikkaa sitten nähdäksesi säähavainnot ja -ennusteet.

Kartan vaihtaminen: klikkaa mustalla rastilla varustettuja vihreitä pisteitä, niin voit zoomata sisään; viivalla varustettua vihreää pistettä, niin voit zoomata ulos tai vihreitä nuolia, niin pääset viereisille kartoille.


METAR-TAF: